Time;durP1;ratioP1;P1;durP2;ratioP2;P2;SDS_P1;SDS_P2;PMS_P1;PMS_P2;Temp;Humidity;BMP_temperature;BMP_pressure;BME280_temperature;BME280_humidity;BME280_pressure;Samples;Min_cycle;Max_cycle;Signal;HPM_P1;HPM_P2
2022/08/19 00:00:43;;;;;;;1.77;0.30;;;13.90;99.90;;;;;;20472946;29;20508;-63
2022/08/19 00:10:47;;;;;;;2.97;0.40;;;14.00;99.90;;;;;;20497091;29;20137;-63
2022/08/19 00:20:50;;;;;;;2.67;0.75;;;14.20;99.90;;;;;;20480968;29;20055;-63
2022/08/19 00:30:53;;;;;;;3.00;1.10;;;14.30;99.90;;;;;;20479730;29;20043;-63
2022/08/19 00:40:56;;;;;;;3.20;1.10;;;14.30;99.90;;;;;;20480049;29;20042;-52
2022/08/19 00:50:58;;;;;;;2.38;1.23;;;14.50;99.90;;;;;;20492403;29;20094;-48
2022/08/19 01:01:02;;;;;;;1.10;0.50;;;14.60;99.90;;;;;;20494585;29;20071;-52
2022/08/19 01:11:07;;;;;;;3.47;0.45;;;14.60;99.90;;;;;;20526057;28;20039;-49
2022/08/19 01:21:24;;;;;;;2.65;0.47;;;14.90;99.90;;;;;;20493590;29;20106;-49
2022/08/19 01:31:30;;;;;;;6.25;2.38;;;15.20;99.90;;;;;;20491871;29;20043;-63
2022/08/19 01:41:32;;;;;;;4.57;2.55;;;14.90;99.90;;;;;;20507661;29;20035;-63
2022/08/19 01:51:36;;;;;;;5.78;3.42;;;14.40;99.90;;;;;;20491241;29;20102;-63
2022/08/19 02:01:38;;;;;;;5.45;3.08;;;14.20;99.90;;;;;;20489849;28;20039;-63
2022/08/19 02:11:42;;;;;;;4.75;2.22;;;14.00;99.90;;;;;;20521382;28;20099;-53
2022/08/19 02:21:44;;;;;;;3.45;2.53;;;13.70;99.90;;;;;;20473118;29;20488;-49
2022/08/19 02:31:47;;;;;;;4.18;1.52;;;13.60;99.90;;;;;;20487197;29;20038;-50
2022/08/19 02:41:50;;;;;;;6.28;2.83;;;13.60;99.90;;;;;;20487111;29;20043;-48
2022/08/19 02:51:54;;;;;;;3.90;1.48;;;13.80;99.90;;;;;;20487329;29;20102;-50
2022/08/19 03:01:56;;;;;;;4.68;2.17;;;13.70;99.90;;;;;;20486298;29;20090;-50
2022/08/19 03:11:59;;;;;;;4.32;2.10;;;13.50;99.90;;;;;;20500817;28;20059;-51
2022/08/19 03:22:03;;;;;;;6.88;3.22;;;13.70;99.90;;;;;;20485225;29;20047;-51
2022/08/19 03:32:07;;;;;;;6.13;2.33;;;13.60;99.90;;;;;;20405140;29;20091;-51
2022/08/19 03:42:11;;;;;;;6.72;3.15;;;13.20;99.90;;;;;;20467559;29;20473;-63
2022/08/19 03:52:13;;;;;;;7.55;3.05;;;13.00;99.90;;;;;;20483270;29;20097;-49
2022/08/19 04:02:16;;;;;;;7.18;2.80;;;12.90;99.90;;;;;;20482233;29;20044;-51
2022/08/19 04:12:20;;;;;;;5.22;2.45;;;12.70;99.90;;;;;;20513912;28;20047;-63
2022/08/19 04:22:23;;;;;;;6.00;1.60;;;12.80;99.90;;;;;;20489301;28;20043;-50
2022/08/19 04:32:26;;;;;;;5.63;2.08;;;13.30;99.90;;;;;;20496709;29;20035;-49
2022/08/19 04:42:40;;;;;;;4.97;1.60;;;13.10;99.90;;;;;;20499296;29;20086;-52
2022/08/19 04:52:42;;;;;;;3.40;1.80;;;12.70;99.90;;;;;;20496416;29;20043;-63
2022/08/19 05:02:45;;;;;;;14.43;4.13;;;12.90;99.90;;;;;;20495133;29;20110;-50
2022/08/19 05:12:47;;;;;;;7.05;3.58;;;13.10;99.90;;;;;;20526269;28;20102;-52
2022/08/19 05:22:52;;;;;;;7.13;3.22;;;13.30;99.90;;;;;;20478489;29;20035;-63
2022/08/19 05:32:55;;;;;;;5.97;2.72;;;13.90;99.90;;;;;;20491833;28;20074;-51
2022/08/19 05:42:58;;;;;;;5.40;2.50;;;14.70;99.90;;;;;;20499938;29;20071;-53
2022/08/19 05:53:00;;;;;;;3.58;2.35;;;15.30;99.90;;;;;;20492040;29;20035;-63
2022/08/19 06:03:04;;;;;;;8.07;3.53;;;15.40;99.90;;;;;;20492030;29;20039;-62
2022/08/19 06:13:06;;;;;;;6.38;3.08;;;15.40;99.90;;;;;;20521783;28;20055;-49
2022/08/19 06:23:09;;;;;;;5.93;1.70;;;15.20;99.90;;;;;;20489706;29;20381;-63
2022/08/19 06:33:12;;;;;;;2.28;1.20;;;15.70;99.90;;;;;;20488768;29;20485;-63
2022/08/19 06:43:15;;;;;;;2.80;0.90;;;16.20;99.90;;;;;;20494792;28;20031;-51
2022/08/19 06:53:19;;;;;;;3.35;1.40;;;16.00;99.90;;;;;;20487464;29;20160;-63
2022/08/19 07:03:21;;;;;;;3.88;0.95;;;16.00;99.90;;;;;;20442548;28;20098;-48
2022/08/19 07:13:24;;;;;;;1.67;0.77;;;16.20;99.90;;;;;;20479195;28;20444;-48
2022/08/19 07:23:27;;;;;;;5.13;1.95;;;16.60;99.90;;;;;;20470519;28;20032;-58
2022/08/19 07:33:32;;;;;;;5.45;2.78;;;16.90;99.90;;;;;;20481470;29;20524;-61
2022/08/19 07:43:35;;;;;;;2.83;1.05;;;16.80;99.90;;;;;;20493380;29;20043;-53
2022/08/19 07:53:37;;;;;;;2.42;1.00;;;16.80;99.90;;;;;;20482575;28;20105;-62
2022/08/19 08:14:01;;;;;;;6.80;3.10;;;16.50;99.90;;;;;;20497179;28;20051;-51
2022/08/19 08:24:05;;;;;;;4.13;2.75;;;15.70;99.90;;;;;;20481215;29;20547;-58
2022/08/19 08:34:08;;;;;;;3.50;1.70;;;15.20;99.90;;;;;;20480694;29;20547;-58
2022/08/19 08:44:36;;;;;;;3.00;1.20;;;14.90;99.90;;;;;;20460782;29;20091;-59
2022/08/19 08:54:44;;;;;;;3.13;1.17;;;14.90;99.90;;;;;;20480009;29;20396;-59
2022/08/19 09:04:47;;;;;;;2.65;0.90;;;14.90;99.90;;;;;;20465504;28;20035;-59
2022/08/19 09:14:58;;;;;;;4.63;1.27;;;15.10;99.90;;;;;;20525693;28;20090;-59
2022/08/19 09:25:02;;;;;;;2.80;0.90;;;15.10;99.90;;;;;;20493049;29;20070;-58
2022/08/19 09:35:06;;;;;;;1.77;0.47;;;15.10;99.90;;;;;;20508501;29;20453;-58
2022/08/19 09:45:09;;;;;;;2.40;0.40;;;15.00;99.90;;;;;;20507454;29;20560;-58
2022/08/19 09:55:13;;;;;;;1.05;0.43;;;14.50;99.90;;;;;;20491821;29;20039;-58
2022/08/19 10:15:39;;;;;;;2.75;1.23;;;15.20;99.90;;;;;;20505146;28;20043;-58
2022/08/19 10:25:43;;;;;;;1.77;1.02;;;16.30;99.90;;;;;;20488540;29;20103;-57
2022/08/19 10:35:46;;;;;;;0.75;0.60;;;16.80;99.90;;;;;;20503833;29;20047;-60
2022/08/19 10:45:55;;;;;;;1.52;0.40;;;16.60;99.90;;;;;;20519021;28;20035;-54
2022/08/19 11:06:20;;;;;;;1.38;0.43;;;17.10;99.90;;;;;;20485731;29;20354;-53
2022/08/19 11:16:26;;;;;;;1.80;1.00;;;17.30;99.90;;;;;;20516685;28;20043;-63
2022/08/19 11:26:31;;;;;;;2.40;1.52;;;18.00;99.90;;;;;;20483662;28;20441;-51
2022/08/19 11:36:37;;;;;;;2.47;0.50;;;19.00;99.90;;;;;;20467663;29;20035;-52
2022/08/19 11:46:46;;;;;;;1.58;0.45;;;19.50;99.90;;;;;;20498765;29;20035;-64
2022/08/19 11:56:49;;;;;;;0.93;0.30;;;19.50;99.90;;;;;;20498219;29;20441;-55
2022/08/19 12:06:52;;;;;;;1.30;0.30;;;19.40;99.90;;;;;;20482103;29;20508;-58
2022/08/19 12:16:55;;;;;;;3.45;3.00;;;19.30;99.90;;;;;;20512233;28;20051;-63
2022/08/19 12:27:01;;;;;;;6.55;3.97;;;19.00;99.90;;;;;;20480527;29;20078;-53
2022/08/19 12:37:06;;;;;;;5.18;4.30;;;18.50;99.90;;;;;;20480692;29;20035;-53
2022/08/19 12:47:13;;;;;;;4.63;3.90;;;17.90;99.90;;;;;;20521915;28;20058;-55
2022/08/19 12:57:16;;;;;;;5.63;3.80;;;17.10;99.90;;;;;;20495184;29;20413;-58
2022/08/19 13:07:18;;;;;;;3.35;2.25;;;16.60;99.90;;;;;;20494539;29;20035;-59
2022/08/19 13:17:21;;;;;;;2.35;0.80;;;16.10;99.90;;;;;;20520983;28;20413;-59
2022/08/19 13:27:23;;;;;;;3.33;0.90;;;15.90;99.90;;;;;;20492375;29;20036;-59
2022/08/19 13:37:42;;;;;;;3.58;1.60;;;15.70;99.90;;;;;;20461573;28;20040;-59
2022/08/19 13:47:53;;;;;;;2.95;1.50;;;15.40;99.90;;;;;;20468696;29;20043;-60
2022/08/19 13:57:58;;;;;;;5.57;1.30;;;15.10;99.90;;;;;;20490131;29;20047;-60
2022/08/19 14:08:01;;;;;;;1.95;0.93;;;14.90;99.90;;;;;;20475517;29;20074;-57
2022/08/19 14:18:05;;;;;;;3.97;0.82;;;14.60;99.90;;;;;;20506808;29;20094;-60
2022/08/19 14:28:08;;;;;;;1.23;0.55;;;14.30;99.90;;;;;;20488333;29;20075;-59
2022/08/19 14:38:17;;;;;;;1.15;0.40;;;14.30;99.90;;;;;;20487506;29;20110;-58
2022/08/19 14:48:21;;;;;;;1.77;0.50;;;14.40;99.90;;;;;;20463080;28;20090;-59
2022/08/19 14:58:23;;;;;;;3.40;0.80;;;14.40;99.90;;;;;;20443325;29;20370;-59
2022/08/19 15:08:28;;;;;;;4.35;0.90;;;14.70;99.90;;;;;;20488230;28;20110;-59
2022/08/19 15:18:32;;;;;;;2.25;0.77;;;14.80;99.90;;;;;;20484285;29;20341;-55
2022/08/19 15:28:35;;;;;;;3.22;0.80;;;14.90;99.90;;;;;;20484052;29;20039;-55
2022/08/19 15:38:41;;;;;;;1.95;0.50;;;15.70;99.90;;;;;;20483522;29;20496;-63
2022/08/19 15:48:44;;;;;;;2.92;0.60;;;16.60;99.90;;;;;;20499171;28;20047;-51
2022/08/19 16:09:08;;;;;;;3.72;0.80;;;17.20;99.90;;;;;;20479531;29;20043;-48
2022/08/19 16:19:12;;;;;;;4.43;0.80;;;16.80;99.90;;;;;;20418963;29;20103;-48
2022/08/19 16:29:17;;;;;;;0.80;0.70;;;16.10;99.90;;;;;;20471256;29;20070;-63
2022/08/19 16:39:21;;;;;;;1.73;1.00;;;15.60;99.90;;;;;;20503166;28;20043;-61
2022/08/19 16:49:24;;;;;;;4.13;1.40;;;15.10;99.90;;;;;;20443825;29;20095;-48
2022/08/19 16:59:27;;;;;;;1.70;1.20;;;14.40;99.90;;;;;;20471677;28;20035;-52
2022/08/19 17:09:31;;;;;;;5.10;1.50;;;13.90;99.90;;;;;;20532844;28;20035;-51
2022/08/19 17:19:33;;;;;;;5.07;1.27;;;13.70;99.90;;;;;;20505573;28;20409;-63
2022/08/19 17:29:36;;;;;;;5.07;1.80;;;13.50;99.90;;;;;;20496896;28;20039;-49
2022/08/19 17:39:40;;;;;;;4.30;1.85;;;13.30;99.90;;;;;;20491195;29;20094;-51
2022/08/19 17:49:42;;;;;;;3.35;2.28;;;13.10;99.90;;;;;;20491562;29;20066;-50
2022/08/19 17:59:45;;;;;;;4.85;2.38;;;12.80;99.90;;;;;;20490030;29;20035;-62
2022/08/19 18:09:50;;;;;;;4.22;1.98;;;12.60;99.90;;;;;;20503516;29;20098;-51
2022/08/19 18:19:53;;;;;;;7.32;2.45;;;12.40;99.90;;;;;;20473268;29;20047;-50
2022/08/19 18:29:58;;;;;;;4.82;1.65;;;12.40;99.90;;;;;;20487889;29;20539;-51
2022/08/19 18:50:22;;;;;;;5.00;2.10;;;12.30;99.90;;;;;;20485510;29;20063;-52
2022/08/19 19:00:25;;;;;;;4.40;2.22;;;12.30;99.90;;;;;;20483856;29;20035;-52
2022/08/19 19:10:27;;;;;;;3.85;1.85;;;12.20;99.90;;;;;;20516989;28;20444;-51
2022/08/19 19:20:31;;;;;;;5.22;1.85;;;12.20;99.90;;;;;;20484491;29;20055;-51
2022/08/19 19:30:34;;;;;;;3.63;1.85;;;12.00;99.90;;;;;;20482995;29;20366;-63
2022/08/19 19:40:37;;;;;;;7.13;2.10;;;11.80;99.90;;;;;;20483450;29;20067;-50
2022/08/19 19:50:41;;;;;;;5.00;1.80;;;11.70;99.90;;;;;;20483318;28;20416;-63
2022/08/19 20:00:44;;;;;;;4.18;1.60;;;11.70;99.90;;;;;;20481786;29;20039;-50
2022/08/19 20:10:47;;;;;;;3.72;1.50;;;11.70;99.90;;;;;;20513835;28;20043;-49
2022/08/19 20:20:50;;;;;;;5.50;1.65;;;12.00;99.90;;;;;;20481600;29;20194;-50
2022/08/19 20:30:53;;;;;;;3.58;1.50;;;12.10;99.90;;;;;;20480301;29;20047;-62
2022/08/19 20:40:56;;;;;;;4.00;1.75;;;12.20;99.90;;;;;;20480403;29;20097;-49
2022/08/19 20:50:59;;;;;;;4.65;1.60;;;12.50;99.90;;;;;;20480662;29;20036;-49
2022/08/19 21:01:09;;;;;;;2.88;1.50;;;12.60;99.90;;;;;;20481126;28;20032;-51
2022/08/19 21:11:12;;;;;;;4.30;1.33;;;12.40;99.90;;;;;;20510202;29;20445;-63
2022/08/19 21:21:16;;;;;;;5.18;1.30;;;12.30;99.90;;;;;;20493888;29;20067;-48
2022/08/19 21:31:19;;;;;;;2.30;1.05;;;12.20;99.90;;;;;;20492630;29;20090;-62
2022/08/19 21:41:22;;;;;;;3.72;1.08;;;12.10;99.90;;;;;;20491933;29;20079;-62
2022/08/19 21:51:25;;;;;;;1.83;1.10;;;12.10;99.90;;;;;;20490716;29;20110;-49
2022/08/19 22:01:29;;;;;;;4.03;1.00;;;12.10;99.90;;;;;;20491456;29;20035;-51
2022/08/19 22:11:32;;;;;;;3.60;0.90;;;12.20;99.90;;;;;;20522575;28;20031;-48
2022/08/19 22:21:36;;;;;;;0.77;0.30;;;12.40;99.90;;;;;;20474749;29;20151;-62
2022/08/19 22:31:42;;;;;;;1.77;0.40;;;12.70;99.90;;;;;;20473753;29;20038;-51
2022/08/19 22:41:45;;;;;;;2.08;0.50;;;13.10;99.90;;;;;;20504194;29;20603;-51
2022/08/19 23:02:10;;;;;;;2.10;0.43;;;13.50;99.90;;;;;;20440659;29;20043;-52
2022/08/19 23:12:15;;;;;;;1.17;0.30;;;13.40;99.90;;;;;;20517964;28;20039;-47
2022/08/19 23:22:18;;;;;;;2.92;0.20;;;13.90;99.90;;;;;;20485910;29;20102;-62
2022/08/19 23:32:24;;;;;;;1.42;0.20;;;14.40;99.90;;;;;;20483828;29;20039;-63
2022/08/19 23:42:27;;;;;;;1.05;0.20;;;14.30;99.90;;;;;;20485730;29;20493;-62
2022/08/19 23:52:33;;;;;;;0.30;0.15;;;14.20;99.90;;;;;;20483906;29;20035;-49
